Time,TemperatureF,DewpointF,PressureIn,WindDirection,WindDirectionDegrees,WindSpeedMPH,WindSpeedGustMPH,Humidity,HourlyPrecipIn,Conditions,Clouds,dailyrainin,SoftwareType,DateUTC
2013-08-14 00:06:00,87.2,53.0,29.41,North,357,0.0,-999.0,31,-99.99,,,0.00,weatherlink.com 1.10,2013-08-14 07:06:00,
2013-08-14 00:21:00,85.9,53.0,29.41,North,359,0.0,-999.0,32,-99.99,,,0.00,weatherlink.com 1.10,2013-08-14 07:21:00,
2013-08-14 00:36:00,84.7,54.0,29.41,North,356,0.0,-999.0,35,-99.99,,,0.00,weatherlink.com 1.10,2013-08-14 07:36:00,
2013-08-14 00:51:00,83.4,57.0,29.41,North,357,0.0,-999.0,40,-99.99,,,0.00,weatherlink.com 1.10,2013-08-14 07:51:00,
2013-08-14 01:06:00,81.8,57.0,29.41,North,359,0.0,-999.0,43,-99.99,,,0.00,weatherlink.com 1.10,2013-08-14 08:06:00,
2013-08-14 01:21:00,81.6,58.0,29.41,North,359,0.0,-999.0,45,-99.99,,,0.00,weatherlink.com 1.10,2013-08-14 08:21:00,
2013-08-14 01:36:00,81.1,58.0,29.41,North,359,0.0,-999.0,45,-99.99,,,0.00,weatherlink.com 1.10,2013-08-14 08:36:00,
2013-08-14 01:51:00,80.9,58.0,29.41,North,359,0.0,-999.0,45,-99.99,,,0.00,weatherlink.com 1.10,2013-08-14 08:51:00,
2013-08-14 02:06:00,80.7,57.0,29.41,North,359,0.0,-999.0,45,-99.99,,,0.00,weatherlink.com 1.10,2013-08-14 09:06:00,
2013-08-14 02:21:00,80.7,57.0,29.41,North,359,0.0,-999.0,45,-99.99,,,0.00,weatherlink.com 1.10,2013-08-14 09:21:00,
2013-08-14 02:36:00,80.5,60.0,29.41,North,359,0.0,-999.0,50,-99.99,,,0.00,weatherlink.com 1.10,2013-08-14 09:36:00,
2013-08-14 02:51:00,79.8,62.0,29.41,North,359,0.0,-999.0,55,-99.99,,,0.00,weatherlink.com 1.10,2013-08-14 09:51:00,
2013-08-14 03:06:00,79.6,61.0,29.41,North,359,0.0,-999.0,53,-99.99,,,0.00,weatherlink.com 1.10,2013-08-14 10:06:00,
2013-08-14 03:21:00,79.2,61.0,29.41,North,359,0.0,-999.0,54,-99.99,,,0.00,weatherlink.com 1.10,2013-08-14 10:21:00,
2013-08-14 03:36:00,78.6,60.0,29.41,North,359,0.0,-999.0,53,-99.99,,,0.00,weatherlink.com 1.10,2013-08-14 10:36:00,
2013-08-14 03:51:00,78.6,60.0,29.42,North,359,0.0,-999.0,54,-99.99,,,0.00,weatherlink.com 1.10,2013-08-14 10:51:00,
2013-08-14 04:06:00,78.6,60.0,29.42,North,359,0.0,-999.0,54,-99.99,,,0.00,weatherlink.com 1.10,2013-08-14 11:06:00,
2013-08-14 04:21:00,-999.0,-99.9,29.41,North,-999,-999.0,-999.0,-999,-99.99,,,0.00,weatherlink.com 1.10,2013-08-14 11:21:00,
2013-08-14 04:36:00,-999.0,-99.9,29.42,North,-999,-999.0,-999.0,-999,-99.99,,,0.00,weatherlink.com 1.10,2013-08-14 11:36:00,
2013-08-14 04:51:00,-999.0,-99.9,29.42,North,-999,-999.0,-999.0,-999,-99.99,,,0.00,weatherlink.com 1.10,2013-08-14 11:51:00,
2013-08-14 05:06:00,-999.0,-99.9,29.42,North,-999,-999.0,-999.0,-999,-99.99,,,0.00,weatherlink.com 1.10,2013-08-14 12:06:00,
2013-08-14 05:22:00,-999.0,-99.9,29.43,North,-999,-999.0,-999.0,-999,-99.99,,,0.00,weatherlink.com 1.10,2013-08-14 12:22:00,
2013-08-14 05:37:00,-999.0,-99.9,29.43,North,-999,-999.0,-999.0,-999,-99.99,,,0.00,weatherlink.com 1.10,2013-08-14 12:37:00,
2013-08-14 05:52:00,-999.0,-99.9,29.43,North,-999,-999.0,-999.0,-999,-99.99,,,0.00,weatherlink.com 1.10,2013-08-14 12:52:00,
2013-08-14 06:07:00,-999.0,-99.9,29.45,North,-999,-999.0,-999.0,-999,-99.99,,,0.00,weatherlink.com 1.10,2013-08-14 13:07:00,
2013-08-14 06:22:00,-999.0,-99.9,29.45,North,-999,-999.0,-999.0,-999,-99.99,,,0.00,weatherlink.com 1.10,2013-08-14 13:22:00,
2013-08-14 06:37:00,-999.0,-99.9,29.45,North,-999,-999.0,-999.0,-999,-99.99,,,0.00,weatherlink.com 1.10,2013-08-14 13:37:00,
2013-08-14 06:52:00,-999.0,-99.9,29.46,North,-999,-999.0,-999.0,-999,-99.99,,,0.00,weatherlink.com 1.10,2013-08-14 13:52:00,
2013-08-14 07:07:00,-999.0,-99.9,29.47,North,-999,-999.0,-999.0,-999,-99.99,,,0.00,weatherlink.com 1.10,2013-08-14 14:07:00,
2013-08-14 07:22:00,-999.0,-99.9,29.47,North,-999,-999.0,-999.0,-999,-99.99,,,0.00,weatherlink.com 1.10,2013-08-14 14:22:00,
2013-08-14 07:37:00,-999.0,-99.9,29.47,North,-999,-999.0,-999.0,-999,-99.99,,,0.00,weatherlink.com 1.10,2013-08-14 14:37:00,
2013-08-14 07:52:00,81.6,63.0,29.48,North,359,1.0,-999.0,54,-99.99,,,0.00,weatherlink.com 1.10,2013-08-14 14:52:00,
2013-08-14 08:07:00,84.0,63.0,29.48,North,359,0.0,-999.0,49,-99.99,,,0.00,weatherlink.com 1.10,2013-08-14 15:07:00,
2013-08-14 08:22:00,85.7,63.0,29.48,North,350,4.0,-999.0,46,-99.99,,,0.00,weatherlink.com 1.10,2013-08-14 15:22:00,
2013-08-14 08:37:00,87.8,61.0,29.47,North,357,4.0,-999.0,40,-99.99,,,0.00,weatherlink.com 1.10,2013-08-14 15:37:00,
2013-08-14 09:08:00,92.1,56.0,29.47,North,356,1.0,-999.0,29,-99.99,,,0.00,weatherlink.com 1.10,2013-08-14 16:08:00,
2013-08-14 09:23:00,94.3,56.0,29.47,North,357,1.0,-999.0,27,-99.99,,,0.00,weatherlink.com 1.10,2013-08-14 16:23:00,
2013-08-14 09:38:00,96.3,52.0,29.47,North,357,0.0,-999.0,22,-99.99,,,0.00,weatherlink.com 1.10,2013-08-14 16:38:00,
2013-08-14 09:53:00,98.0,53.0,29.48,North,356,3.0,-999.0,22,-99.99,,,0.00,weatherlink.com 1.10,2013-08-14 16:53:00,
2013-08-14 10:08:00,98.0,49.0,29.48,West,264,1.0,-999.0,19,-99.99,,,0.00,weatherlink.com 1.10,2013-08-14 17:08:00,
2013-08-14 10:38:00,99.0,49.0,29.47,North,352,2.0,-999.0,18,-99.99,,,0.00,weatherlink.com 1.10,2013-08-14 17:38:00,
2013-08-14 10:53:00,100.7,50.0,29.47,ESE,103,1.0,-999.0,18,-99.99,,,0.00,weatherlink.com 1.10,2013-08-14 17:53:00,
2013-08-14 11:08:00,102.5,48.0,29.47,North,357,2.0,-999.0,16,-99.99,,,0.00,weatherlink.com 1.10,2013-08-14 18:08:00,
2013-08-14 11:23:00,103.1,49.0,29.46,North,356,2.0,-999.0,16,-99.99,,,0.00,weatherlink.com 1.10,2013-08-14 18:23:00,
2013-08-14 11:38:00,104.6,48.0,29.46,North,350,1.0,-999.0,15,-99.99,,,0.00,weatherlink.com 1.10,2013-08-14 18:38:00,
2013-08-14 11:53:00,106.0,46.0,29.46,North,357,3.0,-999.0,13,-99.99,,,0.00,weatherlink.com 1.10,2013-08-14 18:53:00,
2013-08-14 12:08:00,106.8,44.0,29.45,North,353,0.0,-999.0,12,-99.99,,,0.00,weatherlink.com 1.10,2013-08-14 19:08:00,
2013-08-14 12:38:00,107.7,43.0,29.44,North,356,3.0,-999.0,11,-99.99,,,0.00,weatherlink.com 1.10,2013-08-14 19:38:00,
2013-08-14 12:53:00,107.4,42.0,29.44,North,356,5.0,-999.0,11,-99.99,,,0.00,weatherlink.com 1.10,2013-08-14 19:53:00,
2013-08-14 13:08:00,107.7,45.0,29.43,North,354,7.0,-999.0,12,-99.99,,,0.00,weatherlink.com 1.10,2013-08-14 20:08:00,
2013-08-14 13:38:00,107.1,45.0,29.43,North,356,10.0,-999.0,12,-99.99,,,0.00,weatherlink.com 1.10,2013-08-14 20:38:00,
2013-08-14 13:53:00,108.2,48.0,29.42,North,356,6.0,-999.0,13,-99.99,,,0.00,weatherlink.com 1.10,2013-08-14 20:53:00,
2013-08-14 14:08:00,108.5,50.0,29.41,North,356,6.0,-999.0,14,-99.99,,,0.00,weatherlink.com 1.10,2013-08-14 21:08:00,
2013-08-14 14:23:00,107.9,49.0,29.41,North,356,3.0,-999.0,14,-99.99,,,0.00,weatherlink.com 1.10,2013-08-14 21:23:00,
2013-08-14 14:38:00,108.2,49.0,29.40,North,356,1.0,-999.0,14,-99.99,,,0.00,weatherlink.com 1.10,2013-08-14 21:38:00,
2013-08-14 14:53:00,108.8,48.0,29.40,North,356,5.0,-999.0,13,-99.99,,,0.00,weatherlink.com 1.10,2013-08-14 21:53:00,
2013-08-14 15:08:00,109.1,48.0,29.39,North,356,7.0,-999.0,13,-99.99,,,0.00,weatherlink.com 1.10,2013-08-14 22:08:00,
2013-08-14 15:23:00,109.3,50.0,29.38,North,0,4.0,-999.0,14,-99.99,,,0.00,weatherlink.com 1.10,2013-08-14 22:23:00,
2013-08-14 15:38:00,109.6,51.0,29.38,North,356,10.0,-999.0,14,-99.99,,,0.00,weatherlink.com 1.10,2013-08-14 22:38:00,
2013-08-14 15:53:00,108.8,50.0,29.37,North,356,6.0,-999.0,14,-99.99,,,0.00,weatherlink.com 1.10,2013-08-14 22:53:00,
2013-08-14 16:08:00,108.8,52.0,29.36,North,354,6.0,-999.0,15,-99.99,,,0.00,weatherlink.com 1.10,2013-08-14 23:08:00,
2013-08-14 16:23:00,109.3,52.0,29.36,North,354,3.0,-999.0,15,-99.99,,,0.00,weatherlink.com 1.10,2013-08-14 23:23:00,
2013-08-14 16:38:00,109.9,53.0,29.35,North,354,0.0,-999.0,15,-99.99,,,0.00,weatherlink.com 1.10,2013-08-14 23:38:00,
2013-08-14 16:53:00,109.9,53.0,29.34,North,356,2.0,-999.0,15,-99.99,,,0.00,weatherlink.com 1.10,2013-08-14 23:53:00,
2013-08-14 17:08:00,110.2,53.0,29.34,North,356,1.0,-999.0,15,-99.99,,,0.00,weatherlink.com 1.10,2013-08-15 00:08:00,
2013-08-14 17:23:00,109.3,52.0,29.34,North,356,0.0,-999.0,15,-99.99,,,0.00,weatherlink.com 1.10,2013-08-15 00:23:00,
2013-08-14 17:38:00,108.8,54.0,29.33,North,356,0.0,-999.0,16,-99.99,,,0.00,weatherlink.com 1.10,2013-08-15 00:38:00,
2013-08-14 17:53:00,107.7,51.0,29.33,North,356,2.0,-999.0,15,-99.99,,,0.00,weatherlink.com 1.10,2013-08-15 00:53:00,
2013-08-14 18:08:00,107.1,52.0,29.33,North,354,5.0,-999.0,16,-99.99,,,0.00,weatherlink.com 1.10,2013-08-15 01:08:00,
2013-08-14 18:23:00,106.5,52.0,29.34,North,354,1.0,-999.0,16,-99.99,,,0.00,weatherlink.com 1.10,2013-08-15 01:23:00,
2013-08-14 18:38:00,106.2,53.0,29.34,North,357,1.0,-999.0,17,-99.99,,,0.00,weatherlink.com 1.10,2013-08-15 01:38:00,
2013-08-14 18:53:00,106.2,53.0,29.34,North,357,1.0,-999.0,17,-99.99,,,0.00,weatherlink.com 1.10,2013-08-15 01:53:00,
2013-08-14 19:08:00,104.6,55.0,29.34,North,357,3.0,-999.0,19,-99.99,,,0.00,weatherlink.com 1.10,2013-08-15 02:08:00,
2013-08-14 19:23:00,103.6,54.0,29.34,North,357,2.0,-999.0,19,-99.99,,,0.00,weatherlink.com 1.10,2013-08-15 02:23:00,
2013-08-14 19:38:00,102.8,53.0,29.34,North,357,3.0,-999.0,19,-99.99,,,0.00,weatherlink.com 1.10,2013-08-15 02:38:00,
2013-08-14 19:53:00,102.3,53.0,29.35,North,357,3.0,-999.0,19,-99.99,,,0.00,weatherlink.com 1.10,2013-08-15 02:53:00,
2013-08-14 20:08:00,101.5,51.0,29.36,North,356,3.0,-999.0,18,-99.99,,,0.00,weatherlink.com 1.10,2013-08-15 03:08:00,
2013-08-14 20:23:00,100.7,50.0,29.36,North,356,3.0,-999.0,18,-99.99,,,0.00,weatherlink.com 1.10,2013-08-15 03:23:00,
2013-08-14 20:38:00,100.2,50.0,29.37,North,356,4.0,-999.0,18,-99.99,,,0.00,weatherlink.com 1.10,2013-08-15 03:38:00,
2013-08-14 20:53:00,99.4,47.0,29.38,North,356,1.0,-999.0,17,-99.99,,,0.00,weatherlink.com 1.10,2013-08-15 03:53:00,
2013-08-14 21:08:00,98.7,48.0,29.39,North,356,0.0,-999.0,18,-99.99,,,0.00,weatherlink.com 1.10,2013-08-15 04:08:00,
2013-08-14 21:23:00,98.0,48.0,29.39,North,356,0.0,-999.0,18,-99.99,,,0.00,weatherlink.com 1.10,2013-08-15 04:23:00,
2013-08-14 21:38:00,97.3,50.0,29.39,North,357,0.0,-999.0,20,-99.99,,,0.00,weatherlink.com 1.10,2013-08-15 04:38:00,
2013-08-14 21:53:00,96.6,53.0,29.40,North,357,2.0,-999.0,23,-99.99,,,0.00,weatherlink.com 1.10,2013-08-15 04:53:00,
2013-08-14 22:08:00,96.1,54.0,29.40,NNW,335,1.0,-999.0,24,-99.99,,,0.00,weatherlink.com 1.10,2013-08-15 05:08:00,
2013-08-14 22:23:00,95.4,56.0,29.40,North,357,4.0,-999.0,27,-99.99,,,0.00,weatherlink.com 1.10,2013-08-15 05:23:00,
2013-08-14 22:38:00,94.9,56.0,29.40,North,357,1.0,-999.0,27,-99.99,,,0.00,weatherlink.com 1.10,2013-08-15 05:38:00,
2013-08-14 22:53:00,94.5,56.0,29.40,North,357,3.0,-999.0,27,-99.99,,,0.00,weatherlink.com 1.10,2013-08-15 05:53:00,
2013-08-14 23:08:00,94.0,55.0,29.40,North,357,1.0,-999.0,27,-99.99,,,0.00,weatherlink.com 1.10,2013-08-15 06:08:00,
2013-08-14 23:23:00,93.8,56.0,29.40,North,357,0.0,-999.0,28,-99.99,,,0.00,weatherlink.com 1.10,2013-08-15 06:23:00,
2013-08-14 23:38:00,93.6,54.0,29.40,North,357,0.0,-999.0,26,-99.99,,,0.00,weatherlink.com 1.10,2013-08-15 06:38:00,
2013-08-14 23:53:00,93.6,52.0,29.40,North,357,0.0,-999.0,24,-99.99,,,0.00,weatherlink.com 1.10,2013-08-15 06:53:00,